createdAt,value
2022-08-01T00:00:28.785Z,0.00
2022-08-01T00:01:28.775Z,0.00
2022-08-01T00:02:28.788Z,0.00
2022-08-01T00:03:28.810Z,0.00
2022-08-01T00:04:28.738Z,0.00
2022-08-01T00:05:28.726Z,0.00
2022-08-01T00:06:28.712Z,0.00
2022-08-01T00:07:28.706Z,0.00
2022-08-01T00:08:28.690Z,0.00
2022-08-01T00:09:29.707Z,0.00
2022-08-01T00:10:28.675Z,0.00
2022-08-01T00:11:28.656Z,0.00
2022-08-01T00:12:28.657Z,0.00
2022-08-01T00:13:28.648Z,0.00
2022-08-01T00:14:32.149Z,0.00
2022-08-01T00:15:28.650Z,0.00
2022-08-01T00:16:28.604Z,0.00
2022-08-01T00:17:28.589Z,0.00
2022-08-01T00:18:28.576Z,0.00
2022-08-01T00:19:28.572Z,0.00
2022-08-01T00:20:28.554Z,0.00
2022-08-01T00:21:28.612Z,0.00
2022-08-01T00:22:29.263Z,0.00
2022-08-01T00:23:28.529Z,0.00
2022-08-01T00:24:28.508Z,0.00
2022-08-01T00:25:33.501Z,0.00
2022-08-01T00:26:28.494Z,0.00
2022-08-01T00:27:28.516Z,0.00
2022-08-01T00:28:28.474Z,0.00
2022-08-01T00:30:09.583Z,0.00
2022-08-01T00:30:28.452Z,0.00
2022-08-01T00:31:28.443Z,0.00
2022-08-01T00:32:28.433Z,0.00
2022-08-01T00:33:28.450Z,0.00
2022-08-01T00:34:28.406Z,0.00
2022-08-01T00:35:28.384Z,0.00
2022-08-01T00:36:28.396Z,0.00
2022-08-01T00:37:28.368Z,0.00
2022-08-01T00:38:28.353Z,0.00
2022-08-01T00:39:28.395Z,0.00
2022-08-01T00:40:28.329Z,0.00
2022-08-01T00:41:28.324Z,0.00
2022-08-01T00:42:28.323Z,0.00
2022-08-01T00:43:28.321Z,0.00
2022-08-01T00:44:28.335Z,0.00
2022-08-01T00:45:28.318Z,0.00
2022-08-01T00:46:28.265Z,0.00
2022-08-01T00:47:28.260Z,0.00
2022-08-01T00:48:28.237Z,0.00
2022-08-01T00:49:28.314Z,0.00
2022-08-01T00:50:28.228Z,0.00
2022-08-01T00:51:28.305Z,0.00
2022-08-01T00:52:28.200Z,0.00
2022-08-01T00:53:28.194Z,0.00
2022-08-01T00:54:28.179Z,0.00
2022-08-01T00:55:28.166Z,0.00
2022-08-01T00:56:28.162Z,0.00
2022-08-01T00:58:02.466Z,0.00
2022-08-01T00:58:28.134Z,0.00
2022-08-01T00:59:28.230Z,0.00
2022-08-01T01:00:28.178Z,0.00
2022-08-01T01:01:39.725Z,0.00
2022-08-01T01:02:28.086Z,0.00
2022-08-01T01:03:57.614Z,0.00
2022-08-01T01:04:28.068Z,0.00
2022-08-01T01:05:28.055Z,0.00
2022-08-01T01:06:28.967Z,0.00
2022-08-01T01:07:28.038Z,0.00
2022-08-01T01:08:28.018Z,0.00
2022-08-01T01:09:28.301Z,0.00
2022-08-01T01:10:27.995Z,0.00
2022-08-01T01:11:27.985Z,0.00
2022-08-01T01:12:27.972Z,0.00
2022-08-01T01:13:27.964Z,0.00
2022-08-01T01:14:27.958Z,0.00
2022-08-01T01:15:28.568Z,0.00
2022-08-01T01:16:27.927Z,0.00
2022-08-01T01:17:49.424Z,0.00
2022-08-01T01:18:27.910Z,0.00
2022-08-01T01:19:27.891Z,0.00
2022-08-01T01:20:27.884Z,0.00
2022-08-01T01:21:27.907Z,0.00
2022-08-01T01:22:27.856Z,0.00
2022-08-01T01:23:27.850Z,0.00
2022-08-01T01:24:27.839Z,0.00
2022-08-01T01:25:27.853Z,0.00
2022-08-01T01:26:27.815Z,0.00
2022-08-01T01:27:27.841Z,0.00
2022-08-01T01:28:27.792Z,0.00
2022-08-01T01:29:27.790Z,0.00
2022-08-01T01:30:27.794Z,0.00
2022-08-01T01:31:27.761Z,0.00
2022-08-01T01:32:28.689Z,0.00
2022-08-01T01:33:27.793Z,0.00
2022-08-01T01:34:27.725Z,0.00
2022-08-01T01:35:27.780Z,0.00
2022-08-01T01:36:27.993Z,0.00
2022-08-01T01:37:27.697Z,0.00
2022-08-01T01:38:27.677Z,0.00
2022-08-01T01:39:27.711Z,0.00
2022-08-01T01:40:27.665Z,0.00
2022-08-01T01:41:27.653Z,0.00
2022-08-01T01:42:27.660Z,0.00
2022-08-01T01:43:28.879Z,0.00
2022-08-01T01:44:27.617Z,0.00
2022-08-01T01:45:27.680Z,0.00
2022-08-01T01:46:27.589Z,0.00
2022-08-01T01:47:27.579Z,0.00
2022-08-01T01:48:27.591Z,0.00
2022-08-01T01:49:27.713Z,0.00
2022-08-01T01:50:27.550Z,0.00
2022-08-01T01:51:27.593Z,0.00
2022-08-01T01:52:27.531Z,0.00
2022-08-01T01:53:27.538Z,0.00
2022-08-01T01:54:27.504Z,0.00
2022-08-01T01:55:28.197Z,0.00
2022-08-01T01:56:27.483Z,0.00
2022-08-01T01:57:27.515Z,0.00
2022-08-01T01:58:27.465Z,0.00
2022-08-01T01:59:27.449Z,0.00
2022-08-01T02:00:27.466Z,0.00
2022-08-01T02:01:58.547Z,0.00
2022-08-01T02:02:27.545Z,0.00
2022-08-01T02:03:27.438Z,0.00
2022-08-01T02:04:27.421Z,0.00
2022-08-01T02:05:27.382Z,0.00
2022-08-01T02:06:27.373Z,0.00
2022-08-01T02:07:27.373Z,0.00
2022-08-01T02:08:27.352Z,0.00
2022-08-01T02:09:27.503Z,0.00
2022-08-01T02:10:28.682Z,0.00
2022-08-01T02:11:27.317Z,0.00
2022-08-01T02:12:27.308Z,0.00
2022-08-01T02:13:27.318Z,0.00
2022-08-01T02:14:28.185Z,0.00
2022-08-01T02:15:27.303Z,0.00
2022-08-01T02:16:27.249Z,0.00
2022-08-01T02:17:27.263Z,0.00
2022-08-01T02:18:27.237Z,0.00
2022-08-01T02:19:27.220Z,0.00
2022-08-01T02:20:27.234Z,0.00
2022-08-01T02:21:27.241Z,0.00
2022-08-01T02:22:27.186Z,0.00
2022-08-01T02:23:27.178Z,0.00
2022-08-01T02:24:30.707Z,0.00
2022-08-01T02:25:27.160Z,0.00
2022-08-01T02:26:27.171Z,0.00
2022-08-01T02:27:27.181Z,0.00
2022-08-01T02:28:27.133Z,0.00
2022-08-01T02:29:27.115Z,0.00
2022-08-01T02:30:27.101Z,0.00
2022-08-01T02:31:27.100Z,0.00
2022-08-01T02:32:27.074Z,0.00
2022-08-01T02:33:27.149Z,0.00
2022-08-01T02:34:28.068Z,0.00
2022-08-01T02:35:27.057Z,0.00
2022-08-01T02:36:31.723Z,0.00
2022-08-01T02:37:27.043Z,0.00
2022-08-01T02:38:27.053Z,0.00
2022-08-01T02:39:27.061Z,0.00
2022-08-01T02:40:26.990Z,0.00
2022-08-01T02:41:26.992Z,0.00
2022-08-01T02:42:26.975Z,0.00
2022-08-01T02:43:26.955Z,0.00
2022-08-01T02:44:27.739Z,0.00
2022-08-01T02:45:27.779Z,0.00
2022-08-01T02:46:26.944Z,0.00
2022-08-01T02:47:26.906Z,0.00
2022-08-01T02:48:26.913Z,0.00
2022-08-01T02:49:26.931Z,0.00
2022-08-01T02:50:26.917Z,0.00
2022-08-01T02:51:26.942Z,0.00
2022-08-01T02:52:26.856Z,0.00
2022-08-01T02:53:41.597Z,0.00
2022-08-01T02:54:26.851Z,0.00
2022-08-01T02:55:26.816Z,0.00
2022-08-01T02:56:26.809Z,0.00
2022-08-01T02:57:30.143Z,0.00
2022-08-01T02:58:29.408Z,0.00
2022-08-01T02:59:26.812Z,0.00
2022-08-01T03:00:26.770Z,0.00
2022-08-01T03:01:27.821Z,0.00
2022-08-01T03:02:26.759Z,0.00
2022-08-01T03:03:26.859Z,0.00
2022-08-01T03:04:26.723Z,0.00
2022-08-01T03:05:26.707Z,0.00
2022-08-01T03:06:26.699Z,0.00
2022-08-01T03:07:34.687Z,0.00
2022-08-01T03:08:26.675Z,0.00
2022-08-01T03:09:27.140Z,0.00
2022-08-01T03:10:26.678Z,0.00
2022-08-01T03:11:26.638Z,0.00
2022-08-01T03:12:26.634Z,0.00
2022-08-01T03:13:26.621Z,0.00
2022-08-01T03:14:26.627Z,0.00
2022-08-01T03:15:26.651Z,0.00
2022-08-01T03:16:26.586Z,0.00
2022-08-01T03:17:26.573Z,0.00
2022-08-01T03:18:26.558Z,0.00
2022-08-01T03:19:26.561Z,0.00
2022-08-01T03:20:26.534Z,0.00
2022-08-01T03:21:26.586Z,0.00
2022-08-01T03:22:26.509Z,0.00
2022-08-01T03:23:37.556Z,0.00
2022-08-01T03:24:26.498Z,0.00
2022-08-01T03:25:26.517Z,0.00
2022-08-01T03:26:26.478Z,0.00
2022-08-01T03:27:26.503Z,0.00
2022-08-01T03:28:29.498Z,0.00
2022-08-01T03:29:26.441Z,0.00
2022-08-01T03:30:26.421Z,0.00
2022-08-01T03:31:26.416Z,0.00
2022-08-01T03:32:26.411Z,0.00
2022-08-01T03:33:26.442Z,5.62
2022-08-01T03:34:26.397Z,5.62
2022-08-01T03:35:26.374Z,5.62
2022-08-01T03:36:26.366Z,5.62
2022-08-01T03:37:26.739Z,5.62
2022-08-01T03:38:26.336Z,5.62
2022-08-01T03:39:26.362Z,5.62
2022-08-01T03:40:26.316Z,11.25
2022-08-01T03:41:26.295Z,11.25
2022-08-01T03:42:26.309Z,11.25
2022-08-01T03:43:26.287Z,11.25
2022-08-01T03:44:26.278Z,11.25
2022-08-01T03:45:26.295Z,11.25
2022-08-01T03:46:26.249Z,16.88
2022-08-01T03:47:26.238Z,16.88
2022-08-01T03:48:26.260Z,16.88
2022-08-01T03:49:26.309Z,16.88
2022-08-01T03:50:26.265Z,16.88
2022-08-01T03:51:26.236Z,22.50
2022-08-01T03:52:26.181Z,22.50
2022-08-01T03:53:26.265Z,22.50
2022-08-01T03:54:26.183Z,28.12
2022-08-01T03:55:26.148Z,28.12
2022-08-01T03:56:26.149Z,28.12
2022-08-01T03:57:36.492Z,33.75
2022-08-01T03:58:26.217Z,33.75
2022-08-01T03:59:26.130Z,33.75
2022-08-01T04:00:26.161Z,33.75
2022-08-01T04:01:26.139Z,39.38
2022-08-01T04:02:26.076Z,39.38
2022-08-01T04:03:26.100Z,39.38
2022-08-01T04:04:26.059Z,45.00
2022-08-01T04:05:26.033Z,50.62
2022-08-01T04:06:26.062Z,50.62
2022-08-01T04:07:26.038Z,56.25
2022-08-01T04:08:29.335Z,56.25
2022-08-01T04:09:26.078Z,56.25
2022-08-01T04:10:25.992Z,61.88
2022-08-01T04:11:25.990Z,61.88
2022-08-01T04:12:25.981Z,61.88
2022-08-01T04:13:26.102Z,61.88
2022-08-01T04:14:26.044Z,61.88
2022-08-01T04:15:26.478Z,67.50
2022-08-01T04:16:25.960Z,73.12
2022-08-01T04:17:25.931Z,73.12
2022-08-01T04:18:25.949Z,73.12
2022-08-01T04:19:25.905Z,73.12
2022-08-01T04:20:26.750Z,78.75
2022-08-01T04:21:26.034Z,84.38
2022-08-01T04:22:26.132Z,84.38
2022-08-01T04:23:25.975Z,78.75
2022-08-01T04:24:25.837Z,84.38
2022-08-01T04:25:25.894Z,84.38
2022-08-01T04:26:25.892Z,84.38
2022-08-01T04:27:49.781Z,84.38
2022-08-01T04:28:25.808Z,90.00
2022-08-01T04:29:25.832Z,95.62
2022-08-01T04:30:25.818Z,95.62
2022-08-01T04:31:25.926Z,101.25
2022-08-01T04:32:26.095Z,95.62
2022-08-01T04:33:25.844Z,101.25
2022-08-01T04:34:25.862Z,101.25
2022-08-01T04:36:02.612Z,101.25
2022-08-01T04:36:25.733Z,106.88
2022-08-01T04:37:25.721Z,112.50
2022-08-01T04:38:25.938Z,112.50
2022-08-01T04:39:25.685Z,112.50
2022-08-01T04:40:25.645Z,112.50
2022-08-01T04:41:25.640Z,112.50
2022-08-01T04:42:30.218Z,112.50
2022-08-01T04:43:25.710Z,112.50
2022-08-01T04:44:27.843Z,112.50
2022-08-01T04:45:25.644Z,112.50
2022-08-01T04:46:25.860Z,118.12
2022-08-01T04:47:25.591Z,123.75
2022-08-01T04:48:25.656Z,123.75
2022-08-01T04:49:26.276Z,135.00
2022-08-01T04:50:25.537Z,140.62
2022-08-01T04:51:25.563Z,129.38
2022-08-01T04:52:25.785Z,129.38
2022-08-01T04:53:25.518Z,135.00
2022-08-01T04:54:25.555Z,146.25
2022-08-01T04:55:25.550Z,157.50
2022-08-01T04:56:25.583Z,168.75
2022-08-01T04:57:25.570Z,174.38
2022-08-01T04:58:25.491Z,185.62
2022-08-01T04:59:25.461Z,180.00
2022-08-01T05:00:25.474Z,174.38
2022-08-01T05:01:25.487Z,168.75
2022-08-01T05:02:25.495Z,168.75
2022-08-01T05:03:25.425Z,163.12
2022-08-01T05:04:25.447Z,163.12
2022-08-01T05:05:25.489Z,168.75
2022-08-01T05:06:25.444Z,168.75
2022-08-01T05:07:25.495Z,168.75
2022-08-01T05:08:25.351Z,168.75
2022-08-01T05:09:30.760Z,168.75
2022-08-01T05:10:25.474Z,168.75
2022-08-01T05:11:25.399Z,168.75
2022-08-01T05:12:25.341Z,168.75
2022-08-01T05:13:25.292Z,168.75
2022-08-01T05:14:25.400Z,168.75
2022-08-01T05:15:25.405Z,174.38
2022-08-01T05:16:25.287Z,180.00
2022-08-01T05:17:25.498Z,191.25
2022-08-01T05:18:27.981Z,213.75
2022-08-01T05:19:25.366Z,225.00
2022-08-01T05:20:25.366Z,225.00
2022-08-01T05:21:25.394Z,230.62
2022-08-01T05:22:25.313Z,230.62
2022-08-01T05:23:36.598Z,225.00
2022-08-01T05:24:25.310Z,219.38
2022-08-01T05:25:57.743Z,219.38
2022-08-01T05:26:25.313Z,219.38
2022-08-01T05:27:25.287Z,230.62
2022-08-01T05:28:25.250Z,236.25
2022-08-01T05:29:31.396Z,236.25
2022-08-01T05:30:31.515Z,241.88
2022-08-01T05:31:31.167Z,241.88
2022-08-01T05:32:25.239Z,236.25
2022-08-01T05:33:25.248Z,225.00
2022-08-01T05:34:25.188Z,236.25
2022-08-01T05:35:25.165Z,236.25
2022-08-01T05:36:25.204Z,247.50
2022-08-01T05:37:25.130Z,258.75
2022-08-01T05:38:25.069Z,264.38
2022-08-01T05:39:25.144Z,270.00
2022-08-01T05:40:25.054Z,264.38
2022-08-01T05:41:24.991Z,258.75
2022-08-01T05:42:25.020Z,253.12
2022-08-01T05:43:28.703Z,247.50
2022-08-01T05:44:25.006Z,236.25
2022-08-01T05:45:25.114Z,236.25
2022-08-01T05:46:27.494Z,230.62
2022-08-01T05:47:25.042Z,230.62
2022-08-01T05:48:25.001Z,213.75
2022-08-01T05:49:24.994Z,196.88
2022-08-01T05:50:24.956Z,191.25
2022-08-01T05:51:25.013Z,196.88
2022-08-01T05:52:24.917Z,202.50
2022-08-01T05:53:25.791Z,213.75
2022-08-01T05:54:24.851Z,225.00
2022-08-01T05:55:24.831Z,236.25
2022-08-01T05:56:26.619Z,247.50
2022-08-01T05:57:25.797Z,241.88
2022-08-01T05:58:24.866Z,241.88
2022-08-01T05:59:24.988Z,241.88
2022-08-01T06:00:24.831Z,241.88
2022-08-01T06:01:24.768Z,258.75
2022-08-01T06:02:24.849Z,292.50
2022-08-01T06:03:24.824Z,303.75
2022-08-01T06:04:24.812Z,292.50
2022-08-01T06:05:24.715Z,270.00
2022-08-01T06:06:25.150Z,298.12
2022-08-01T06:07:24.684Z,292.50
2022-08-01T06:08:24.706Z,264.38
2022-08-01T06:09:24.799Z,247.50
2022-08-01T06:10:24.700Z,264.38
2022-08-01T06:11:24.720Z,286.88
2022-08-01T06:12:24.790Z,298.12
2022-08-01T06:13:24.758Z,258.75
2022-08-01T06:14:24.657Z,253.12
2022-08-01T06:15:24.692Z,258.75
2022-08-01T06:16:24.686Z,270.00
2022-08-01T06:17:24.619Z,292.50
2022-08-01T06:18:24.574Z,298.12
2022-08-01T06:19:24.588Z,292.50
2022-08-01T06:20:24.537Z,292.50
2022-08-01T06:21:25.395Z,326.25
2022-08-01T06:22:24.557Z,393.75
2022-08-01T06:23:31.782Z,410.62
2022-08-01T06:24:25.886Z,371.25
2022-08-01T06:25:24.522Z,388.12
2022-08-01T06:26:24.847Z,421.88
2022-08-01T06:27:24.694Z,354.38
2022-08-01T06:28:24.518Z,286.88
2022-08-01T06:29:24.535Z,281.25
2022-08-01T06:30:24.554Z,286.88
2022-08-01T06:31:24.507Z,292.50
2022-08-01T06:32:26.525Z,309.38
2022-08-01T06:33:24.556Z,320.62
2022-08-01T06:34:24.397Z,315.00
2022-08-01T06:35:24.493Z,315.00
2022-08-01T06:36:24.484Z,320.62
2022-08-01T06:37:24.448Z,354.38
2022-08-01T06:38:24.367Z,360.00
2022-08-01T06:39:24.419Z,360.00
2022-08-01T06:40:24.343Z,382.50
2022-08-01T06:41:24.343Z,405.00
2022-08-01T06:42:24.302Z,405.00
2022-08-01T06:43:24.289Z,416.25
2022-08-01T06:44:24.348Z,517.50
2022-08-01T06:45:24.378Z,495.00
2022-08-01T06:46:24.469Z,444.38
2022-08-01T06:47:24.260Z,416.25
2022-08-01T06:48:30.897Z,365.62
2022-08-01T06:50:41.031Z,376.88
2022-08-01T06:51:42.016Z,354.38
2022-08-01T06:52:41.992Z,320.62
2022-08-01T06:53:41.981Z,343.12
2022-08-01T06:54:42.062Z,399.38
2022-08-01T06:55:41.941Z,376.88
2022-08-01T06:56:42.049Z,354.38
2022-08-01T06:57:41.894Z,388.12
2022-08-01T06:58:41.877Z,410.62
2022-08-01T06:59:41.848Z,455.62
2022-08-01T07:00:41.919Z,438.75
2022-08-01T07:01:42.007Z,427.50
2022-08-01T07:02:41.936Z,388.12
2022-08-01T07:03:52.337Z,365.62
2022-08-01T07:04:41.852Z,376.88
2022-08-01T07:05:41.919Z,410.62
2022-08-01T07:06:41.789Z,393.75
2022-08-01T07:07:42.047Z,388.12
2022-08-01T07:08:41.717Z,399.38
2022-08-01T07:09:41.777Z,354.38
2022-08-01T07:10:41.763Z,331.88
2022-08-01T07:11:43.493Z,309.38
2022-08-01T07:12:41.772Z,326.25
2022-08-01T07:13:44.016Z,309.38
2022-08-01T07:14:41.669Z,275.62
2022-08-01T07:15:41.864Z,270.00
2022-08-01T07:16:41.757Z,286.88
2022-08-01T07:17:41.651Z,309.38
2022-08-01T07:18:41.636Z,303.75
2022-08-01T07:19:41.717Z,309.38
2022-08-01T07:20:52.732Z,320.62
2022-08-01T07:21:41.958Z,298.12
2022-08-01T07:22:41.682Z,281.25
2022-08-01T07:23:45.852Z,286.88
2022-08-01T07:24:45.955Z,303.75
2022-08-01T07:25:41.715Z,292.50
2022-08-01T07:26:52.354Z,270.00
2022-08-01T07:27:41.658Z,270.00
2022-08-01T07:28:44.047Z,286.88
2022-08-01T07:29:41.530Z,292.50
2022-08-01T07:30:41.686Z,292.50
2022-08-01T07:31:41.739Z,303.75
2022-08-01T07:32:41.707Z,315.00
2022-08-01T07:33:48.952Z,331.88
2022-08-01T07:34:41.501Z,337.50
2022-08-01T07:35:41.692Z,315.00
2022-08-01T07:36:41.604Z,298.12
2022-08-01T07:37:48.519Z,286.88
2022-08-01T07:38:41.539Z,286.88
2022-08-01T07:39:41.545Z,292.50
2022-08-01T07:40:41.399Z,298.12
2022-08-01T07:41:53.883Z,303.75
2022-08-01T07:42:41.472Z,292.50
2022-08-01T07:43:47.220Z,309.38
2022-08-01T07:44:41.376Z,331.88
2022-08-01T07:45:46.420Z,331.88
2022-08-01T07:46:41.260Z,315.00
2022-08-01T07:47:41.339Z,320.62
2022-08-01T07:48:41.376Z,360.00
2022-08-01T07:49:41.562Z,427.50
2022-08-01T07:50:41.227Z,466.88
2022-08-01T07:51:42.824Z,438.75
2022-08-01T07:52:41.234Z,405.00
2022-08-01T07:53:41.244Z,433.12
2022-08-01T07:54:41.156Z,489.38
2022-08-01T07:55:41.368Z,511.88
2022-08-01T07:56:41.225Z,438.75
2022-08-01T07:57:41.224Z,348.75
2022-08-01T07:58:41.416Z,331.88
2022-08-01T07:59:41.458Z,326.25
2022-08-01T08:00:41.374Z,326.25
2022-08-01T08:01:41.391Z,348.75
2022-08-01T08:02:41.292Z,371.25
2022-08-01T08:03:41.232Z,382.50
2022-08-01T08:04:43.692Z,343.12
2022-08-01T08:05:58.007Z,292.50
2022-08-01T08:06:41.236Z,292.50
2022-08-01T08:07:41.158Z,292.50
2022-08-01T08:08:41.188Z,292.50
2022-08-01T08:09:41.267Z,292.50
2022-08-01T08:10:41.113Z,298.12
2022-08-01T08:11:44.560Z,298.12
2022-08-01T08:12:40.997Z,303.75
2022-08-01T08:13:41.832Z,303.75
2022-08-01T08:14:41.275Z,303.75
2022-08-01T08:15:41.047Z,303.75
2022-08-01T08:16:41.136Z,309.38
2022-08-01T08:17:41.053Z,309.38
2022-08-01T08:18:41.010Z,315.00
2022-08-01T08:19:41.231Z,320.62
2022-08-01T08:20:40.956Z,326.25
2022-08-01T08:21:41.030Z,331.88
2022-08-01T08:22:40.912Z,337.50
2022-08-01T08:23:42.028Z,343.12
2022-08-01T08:24:46.715Z,348.75
2022-08-01T08:25:41.094Z,354.38
2022-08-01T08:26:41.032Z,354.38
2022-08-01T08:27:40.968Z,354.38
2022-08-01T08:28:41.332Z,354.38
2022-08-01T08:29:41.002Z,354.38
2022-08-01T08:30:40.868Z,354.38
2022-08-01T08:31:52.084Z,360.00
2022-08-01T08:32:40.971Z,376.88
2022-08-01T08:33:40.908Z,421.88
2022-08-01T08:34:40.939Z,461.25
2022-08-01T08:35:54.154Z,466.88
2022-08-01T08:36:40.938Z,393.75
2022-08-01T08:37:47.553Z,371.25
2022-08-01T08:38:40.806Z,388.12
2022-08-01T08:39:41.395Z,450.00
2022-08-01T08:40:41.735Z,495.00
2022-08-01T08:41:40.733Z,556.88
2022-08-01T08:42:40.774Z,495.00
2022-08-01T08:43:40.656Z,399.38
2022-08-01T08:44:43.876Z,365.62
2022-08-01T08:45:56.112Z,388.12
2022-08-01T08:46:40.657Z,416.25
2022-08-01T08:47:40.646Z,393.75
2022-08-01T08:48:40.686Z,376.88
2022-08-01T08:49:40.695Z,354.38
2022-08-01T08:50:40.811Z,348.75
2022-08-01T08:51:40.516Z,331.88
2022-08-01T08:52:41.388Z,331.88
2022-08-01T08:53:40.552Z,343.12
2022-08-01T08:54:40.486Z,354.38
2022-08-01T08:55:56.191Z,376.88
2022-08-01T08:56:40.616Z,444.38
2022-08-01T08:57:40.453Z,551.25
2022-08-01T08:58:40.444Z,579.38
2022-08-01T08:59:40.448Z,478.12
2022-08-01T09:00:40.519Z,438.75
2022-08-01T09:01:40.447Z,433.12
2022-08-01T09:02:40.745Z,421.88
2022-08-01T09:03:40.468Z,393.75
2022-08-01T09:04:40.372Z,410.62
2022-08-01T09:05:42.299Z,523.12
2022-08-01T09:06:40.353Z,646.88
2022-08-01T09:07:41.197Z,630.00
2022-08-01T09:08:40.397Z,579.38
2022-08-01T09:09:40.890Z,444.38
2022-08-01T09:10:40.398Z,371.25
2022-08-01T09:11:40.627Z,354.38
2022-08-01T09:12:40.287Z,360.00
2022-08-01T09:13:45.236Z,405.00
2022-08-01T09:14:40.265Z,421.88
2022-08-01T09:15:40.493Z,444.38
2022-08-01T09:16:41.712Z,399.38
2022-08-01T09:17:40.320Z,360.00
2022-08-01T09:18:40.221Z,371.25
2022-08-01T09:19:44.548Z,388.12
2022-08-01T09:20:40.199Z,382.50
2022-08-01T09:21:40.210Z,343.12
2022-08-01T09:22:41.104Z,331.88
2022-08-01T09:23:40.648Z,343.12
2022-08-01T09:24:40.656Z,343.12
2022-08-01T09:25:46.262Z,309.38
2022-08-01T09:26:40.220Z,309.38
2022-08-01T09:27:44.364Z,315.00
2022-08-01T09:28:40.989Z,315.00
2022-08-01T09:29:40.986Z,320.62
2022-08-01T09:30:40.102Z,331.88
2022-08-01T09:31:40.494Z,331.88
2022-08-01T09:32:40.074Z,331.88
2022-08-01T09:33:40.218Z,331.88
2022-08-01T09:34:40.838Z,331.88
2022-08-01T09:35:43.303Z,320.62
2022-08-01T09:36:40.224Z,337.50
2022-08-01T09:37:40.150Z,360.00
2022-08-01T09:38:40.098Z,348.75
2022-08-01T09:39:39.994Z,343.12
2022-08-01T09:40:39.999Z,360.00
2022-08-01T09:41:40.471Z,371.25
2022-08-01T09:42:40.717Z,388.12
2022-08-01T09:43:40.053Z,371.25
2022-08-01T09:44:42.647Z,376.88
2022-08-01T09:45:41.563Z,405.00
2022-08-01T09:46:39.921Z,450.00
2022-08-01T09:47:40.016Z,495.00
2022-08-01T09:48:39.896Z,523.12
2022-08-01T09:49:50.068Z,528.75
2022-08-01T09:50:39.872Z,483.75
2022-08-01T09:52:00.013Z,427.50
2022-08-01T09:52:41.239Z,433.12
2022-08-01T09:53:39.830Z,506.25
2022-08-01T09:54:40.656Z,635.62
2022-08-01T09:55:40.003Z,714.38
2022-08-01T09:56:40.045Z,748.12
2022-08-01T09:57:39.784Z,725.62
2022-08-01T09:58:39.789Z,658.12
2022-08-01T09:59:57.371Z,641.25
2022-08-01T10:00:46.843Z,601.88
2022-08-01T10:01:40.564Z,534.38
2022-08-01T10:02:39.733Z,613.12
2022-08-01T10:03:39.803Z,742.50
2022-08-01T10:04:39.711Z,826.88
2022-08-01T10:05:39.825Z,787.50
2022-08-01T10:06:39.683Z,697.50
2022-08-01T10:07:43.425Z,585.00
2022-08-01T10:08:39.983Z,478.12
2022-08-01T10:09:41.159Z,450.00
2022-08-01T10:10:39.902Z,421.88
2022-08-01T10:11:39.651Z,438.75
2022-08-01T10:12:39.956Z,511.88
2022-08-01T10:13:39.643Z,562.50
2022-08-01T10:14:39.596Z,528.75
2022-08-01T10:15:39.573Z,506.25
2022-08-01T10:16:39.576Z,545.62
2022-08-01T10:17:51.163Z,652.50
2022-08-01T10:18:40.187Z,759.38
2022-08-01T10:19:39.568Z,720.00
2022-08-01T10:20:39.527Z,675.00
2022-08-01T10:21:57.020Z,658.12
2022-08-01T10:22:39.557Z,607.50
2022-08-01T10:23:40.665Z,596.25
2022-08-01T10:24:39.484Z,635.62
2022-08-01T10:25:43.275Z,697.50
2022-08-01T10:26:39.462Z,759.38
2022-08-01T10:27:39.868Z,765.00
2022-08-01T10:28:39.665Z,787.50
2022-08-01T10:29:46.446Z,866.25
2022-08-01T10:30:39.427Z,933.75
2022-08-01T10:31:39.443Z,956.25
2022-08-01T10:32:39.840Z,922.50
2022-08-01T10:33:51.333Z,826.88
2022-08-01T10:34:39.422Z,781.88
2022-08-01T10:35:46.677Z,748.12
2022-08-01T10:36:40.921Z,658.12
2022-08-01T10:37:52.027Z,613.12
2022-08-01T10:38:39.375Z,551.25
2022-08-01T10:39:39.321Z,579.38
2022-08-01T10:40:39.865Z,658.12
2022-08-01T10:41:41.449Z,680.62
2022-08-01T10:42:39.372Z,646.88
2022-08-01T10:43:39.416Z,601.88
2022-08-01T10:44:39.622Z,540.00
2022-08-01T10:45:39.548Z,528.75
2022-08-01T10:46:39.476Z,568.12
2022-08-01T10:47:50.943Z,568.12
2022-08-01T10:48:39.700Z,601.88
2022-08-01T10:49:39.368Z,697.50
2022-08-01T10:50:39.194Z,714.38
2022-08-01T10:51:52.275Z,753.75
2022-08-01T10:52:39.901Z,888.75
2022-08-01T10:53:42.404Z,1040.62
2022-08-01T10:54:39.184Z,961.88
2022-08-01T10:55:39.186Z,810.00
2022-08-01T10:56:39.155Z,708.75
2022-08-01T10:57:39.523Z,680.62
2022-08-01T10:58:42.672Z,691.88
2022-08-01T10:59:39.105Z,748.12
2022-08-01T11:00:39.104Z,798.75
2022-08-01T11:01:44.898Z,821.25
2022-08-01T11:02:39.426Z,939.38
2022-08-01T11:03:56.565Z,1035.00
2022-08-01T11:04:39.123Z,1063.12
2022-08-01T11:05:39.052Z,1063.12
2022-08-01T11:06:39.187Z,1057.50
2022-08-01T11:07:39.054Z,1029.38
2022-08-01T11:08:39.025Z,950.62
2022-08-01T11:09:38.979Z,916.88
2022-08-01T11:10:39.875Z,894.38
2022-08-01T11:11:38.976Z,866.25
2022-08-01T11:12:38.946Z,781.88
2022-08-01T11:13:39.006Z,697.50
2022-08-01T11:14:55.191Z,646.88
2022-08-01T11:15:50.236Z,601.88
2022-08-01T11:16:38.930Z,579.38
2022-08-01T11:17:41.817Z,568.12
2022-08-01T11:18:38.893Z,562.50
2022-08-01T11:19:38.902Z,568.12
2022-08-01T11:20:42.344Z,579.38
2022-08-01T11:21:58.523Z,596.25
2022-08-01T11:22:38.850Z,613.12
2022-08-01T11:23:38.832Z,624.38
2022-08-01T11:24:38.818Z,663.75
2022-08-01T11:26:03.173Z,714.38
2022-08-01T11:26:38.797Z,703.12
2022-08-01T11:27:38.783Z,641.25
2022-08-01T11:28:41.253Z,573.75
2022-08-01T11:29:38.764Z,590.62
2022-08-01T11:30:38.744Z,590.62
2022-08-01T11:31:38.783Z,579.38
2022-08-01T11:33:05.633Z,551.25
2022-08-01T11:33:38.722Z,545.62
2022-08-01T11:34:38.707Z,551.25
2022-08-01T11:35:38.704Z,551.25
2022-08-01T11:37:38.712Z,562.50
2022-08-01T11:38:39.282Z,573.75
2022-08-01T11:39:39.097Z,579.38
2022-08-01T11:40:38.673Z,585.00
2022-08-01T11:41:39.514Z,590.62
2022-08-01T11:42:38.610Z,601.88
2022-08-01T11:43:38.675Z,607.50
2022-08-01T11:44:38.595Z,613.12
2022-08-01T11:45:38.605Z,618.75
2022-08-01T11:46:38.570Z,630.00
2022-08-01T11:47:38.552Z,646.88
2022-08-01T11:48:38.548Z,658.12
2022-08-01T11:49:39.295Z,680.62
2022-08-01T11:50:40.305Z,708.75
2022-08-01T11:51:38.541Z,765.00
2022-08-01T11:52:38.535Z,855.00
2022-08-01T11:53:38.562Z,978.75
2022-08-01T11:54:38.495Z,1091.25
2022-08-01T11:55:38.537Z,1141.88
2022-08-01T11:56:42.918Z,1237.50
2022-08-01T11:57:39.226Z,1305.00
2022-08-01T11:58:38.437Z,1327.50
2022-08-01T11:59:41.087Z,1321.88
2022-08-01T12:00:38.477Z,1293.75
2022-08-01T12:01:38.493Z,1265.62
2022-08-01T12:02:39.380Z,1237.50
2022-08-01T12:03:38.475Z,1276.88
2022-08-01T12:04:38.395Z,1305.00
2022-08-01T12:05:43.379Z,1293.75
2022-08-01T12:06:38.357Z,1260.00
2022-08-01T12:07:38.383Z,1192.50
2022-08-01T12:08:38.412Z,1198.12
2022-08-01T12:09:38.402Z,1237.50
2022-08-01T12:10:49.726Z,1299.38
2022-08-01T12:11:38.404Z,1411.88
2022-08-01T12:12:38.312Z,1434.38
2022-08-01T12:13:38.360Z,1400.62
2022-08-01T12:14:38.368Z,1293.75
2022-08-01T12:15:38.343Z,1237.50
2022-08-01T12:16:38.288Z,1220.62
2022-08-01T12:17:38.233Z,1265.62
2022-08-01T12:18:38.322Z,1316.25
2022-08-01T12:19:38.357Z,1395.00
2022-08-01T12:20:40.154Z,1440.00
2022-08-01T12:21:38.236Z,1428.75
2022-08-01T12:22:38.388Z,1383.75
2022-08-01T12:23:38.164Z,1361.25
2022-08-01T12:24:38.305Z,1344.38
2022-08-01T12:25:38.325Z,1361.25
2022-08-01T12:26:38.311Z,1327.50
2022-08-01T12:27:38.145Z,1299.38
2022-08-01T12:28:38.880Z,1293.75
2022-08-01T12:29:44.573Z,1288.12
2022-08-01T12:30:38.228Z,1248.75
2022-08-01T12:31:38.143Z,1293.75
2022-08-01T12:32:38.076Z,1406.25
2022-08-01T12:33:38.066Z,1513.12
2022-08-01T12:34:38.048Z,1591.88
2022-08-01T12:35:38.019Z,1687.50
2022-08-01T12:36:38.031Z,1704.38
2022-08-01T12:37:38.107Z,1681.88
2022-08-01T12:38:38.278Z,1755.00
2022-08-01T12:39:40.153Z,1496.25
2022-08-01T12:40:42.079Z,1681.88
2022-08-01T12:41:38.022Z,2722.50
2022-08-01T12:42:38.101Z,4033.12
2022-08-01T12:43:38.003Z,3757.50
2022-08-01T12:44:37.928Z,3510.00